»·PEaware :: N1DB KBLI-3W7

N1DB :: KBLI-3W7

FLIGHT INFORMATION

Flight Status: Arrived
Operator: Privately registered:
United States
More flights under this callsign
Pilot: Dominic B. (18944)
Aircraft: SOCATA TBM-850
(TBM8)
More flights by this aircraft type
Origin: KBLI Bellingham Intl
United States
Destination: 3W7 Grand Coulee Dam
United States
More flights between these airports :: More routes between these airports
Route:
File this flight plan on PilotEdge
Remarks:
Altitude:
(Current/Filed)
17,500ft
Speed:
(Current/Filed)
284kts
Departed: 08-Oct-23 05:32 PM
Arrived: 08-Oct-23 06:12 PM
Distance/Time
Traveled:
147nm/0:39
Distance/Time
To Go:
Arrived

Flight Plot

Page will automatically refresh every two minutes.

Flight plan parsing failed; only flown route is shown


Map Options




Map Legend


Flown Route
Filed Route
Departure Airport
Arrival Airport
Navaid (VOR, NDB)
Fix

Horizontal Profiles

Position Reports

Time Latitude Longitude Heading Altitude Ground
Speed
08-Oct-23 17:14 48.793484 -122.531967 143 146ft 0kts
08-Oct-23 17:15 48.793484 -122.531967 143 146ft 0kts
08-Oct-23 17:16 48.793484 -122.531967 143 146ft 0kts
08-Oct-23 17:17 48.793484 -122.531967 143 146ft 0kts
08-Oct-23 17:18 48.793484 -122.531967 143 146ft 0kts
08-Oct-23 17:19 48.793484 -122.531967 143 146ft 0kts
08-Oct-23 17:20 48.793484 -122.531967 143 146ft 0kts
08-Oct-23 17:21 48.793484 -122.531967 143 146ft 0kts
08-Oct-23 17:22 48.793342 -122.532035 244 146ft 0kts
08-Oct-23 17:23 48.793268 -122.532332 265 146ft 0kts
08-Oct-23 17:24 48.793268 -122.532332 265 146ft 0kts
08-Oct-23 17:25 48.793587 -122.533123 347 146ft 10kts
08-Oct-23 17:26 48.794992 -122.534559 307 146ft 8kts
08-Oct-23 17:27 48.798731 -122.535793 356 146ft 13kts
08-Oct-23 17:28 48.801222 -122.535671 1 146ft 9kts
08-Oct-23 17:29 48.801761 -122.535920 298 146ft 0kts
08-Oct-23 17:30 48.801806 -122.537271 255 147ft 4kts
08-Oct-23 17:31 48.785853 -122.537623 181 488ft 106kts
08-Oct-23 17:32 48.774546 -122.497006 92 2067ft 134kts
08-Oct-23 17:33 48.779055 -122.439033 95 4083ft 141kts
08-Oct-23 17:34 48.771612 -122.383913 125 6196ft 132kts
08-Oct-23 17:35 48.758268 -122.330542 123 8319ft 136kts
08-Oct-23 17:36 48.745082 -122.275824 124 10418ft 143kts
08-Oct-23 17:37 48.730913 -122.216963 123 12257ft 154kts
08-Oct-23 17:38 48.715565 -122.153318 122 14119ft 166kts
08-Oct-23 17:39 48.699402 -122.086178 122 15935ft 173kts
08-Oct-23 17:40 48.682228 -122.015953 122 17439ft 199kts
08-Oct-23 17:41 48.658137 -121.921327 118 17526ft 268kts
08-Oct-23 17:42 48.632351 -121.809681 116 17543ft 287kts
08-Oct-23 17:43 48.603947 -121.694300 117 17570ft 295kts
08-Oct-23 17:44 48.574966 -121.577412 117 17505ft 300kts
08-Oct-23 17:45 48.545901 -121.460241 117 17477ft 298kts
08-Oct-23 17:46 48.516719 -121.343209 116 17498ft 298kts
08-Oct-23 17:47 48.487650 -121.226793 116 17487ft 295kts
08-Oct-23 17:48 48.458279 -121.110631 117 17519ft 299kts
08-Oct-23 17:49 48.428545 -120.993377 116 17504ft 298kts
08-Oct-23 17:50 48.392005 -120.884197 140 17488ft 282kts
08-Oct-23 17:51 48.333921 -120.806308 143 17501ft 279kts
08-Oct-23 17:52 48.277022 -120.726075 142 17513ft 282kts
08-Oct-23 17:53 48.218881 -120.643105 141 16626ft 294kts
08-Oct-23 17:54 48.159863 -120.558966 141 15641ft 289kts
08-Oct-23 17:55 48.103492 -120.478244 142 15527ft 274kts
08-Oct-23 17:56 48.047318 -120.398605 141 15553ft 283kts
08-Oct-23 17:57 48.018425 -120.288267 100 15490ft 301kts
08-Oct-23 17:58 48.008722 -120.164224 101 15505ft 300kts
08-Oct-23 17:59 47.999120 -120.039877 101 15277ft 308kts
08-Oct-23 18:00 47.989083 -119.910100 101 13874ft 317kts
08-Oct-23 18:01 47.978893 -119.780192 101 12399ft 312kts
08-Oct-23 18:02 47.968726 -119.652941 101 10908ft 305kts
08-Oct-23 18:03 47.957675 -119.530931 102 9492ft 288kts
08-Oct-23 18:04 47.945603 -119.414524 102 7976ft 279kts
08-Oct-23 18:05 47.932247 -119.301554 103 6552ft 273kts
08-Oct-23 18:06 47.927045 -119.201488 71 4873ft 199kts
08-Oct-23 18:07 47.946756 -119.138370 59 4020ft 153kts
08-Oct-23 18:08 47.963720 -119.084868 108 3085ft 128kts
08-Oct-23 18:09 47.942535 -119.054387 179 2240ft 90kts
08-Oct-23 18:10 47.924544 -119.078445 230 1597ft 83kts
08-Oct-23 18:11 47.922939 -119.081357 55 1598ft 7kts
08-Oct-23 18:12 47.921803 -119.079475 68 1596ft 2kts
08-Oct-23 18:13 47.921901 -119.079459 302 1595ft 0kts
08-Oct-23 18:14 47.921901 -119.079459 302 1595ft 0kts

Navigation Log

Ident Type
Flight plan parsing failed, navigation log unavailable